Time;durP1;ratioP1;P1;durP2;ratioP2;P2;SDS_P1;SDS_P2;PMS_P1;PMS_P2;Temp;Humidity;BMP_temperature;BMP_pressure;BME280_temperature;BME280_humidity;BME280_pressure;Samples;Min_cycle;Max_cycle;Signal;HPM_P1;HPM_P2
2022/01/18 00:00:51;;;;;;;5.85;3.72;;;;;;;6.10;61.29;97590.66;4995240;28;20054;-87
2022/01/18 00:03:16;;;;;;;6.07;3.85;;;;;;;6.07;59.22;97580.16;5007622;28;20046;-86
2022/01/18 00:05:44;;;;;;;5.07;2.70;;;;;;;6.14;58.35;97590.47;5003444;28;20050;-86
2022/01/18 00:08:10;;;;;;;5.63;2.92;;;;;;;6.20;58.04;97560.97;5002451;28;20046;-86
2022/01/18 00:10:36;;;;;;;4.00;2.20;;;;;;;6.09;57.55;97546.47;4984551;28;20102;-85
2022/01/18 00:15:39;;;;;;;4.60;2.85;;;;;;;6.17;59.33;97603.59;4988636;28;20030;-86
2022/01/18 00:18:09;;;;;;;3.67;2.47;;;;;;;6.27;57.92;97612.91;4975311;28;20031;-85
2022/01/18 00:23:12;;;;;;;3.85;2.67;;;;;;;6.20;57.80;97603.47;4993488;28;20023;-86
2022/01/18 00:25:42;;;;;;;4.90;2.83;;;;;;;6.14;58.78;97608.19;4993141;28;20041;-85
2022/01/18 00:28:07;;;;;;;4.18;2.60;;;;;;;6.08;58.57;97619.06;4994253;28;20125;-87
2022/01/18 00:35:34;;;;;;;6.75;3.22;;;;;;;5.96;59.17;97645.22;5003611;28;20125;-86
2022/01/18 00:38:00;;;;;;;8.75;3.03;;;;;;;5.83;61.94;97699.69;5001475;28;20035;-86
2022/01/18 00:40:26;;;;;;;6.60;3.33;;;;;;;5.65;68.76;97753.50;4995720;28;20099;-86
2022/01/18 00:42:51;;;;;;;5.10;3.42;;;;;;;5.15;76.41;97751.91;4972218;28;20057;-85
2022/01/18 00:45:17;;;;;;;8.20;4.53;;;;;;;4.74;81.63;97758.72;4964337;28;20033;-85
2022/01/18 00:47:43;;;;;;;7.47;3.70;;;;;;;4.56;85.03;97762.88;4965549;28;20034;-85
2022/01/18 00:50:09;;;;;;;6.53;3.75;;;;;;;4.45;85.44;97766.81;4981735;28;20499;-86
2022/01/18 00:52:40;;;;;;;6.85;3.70;;;;;;;4.31;84.76;97767.28;4976402;28;20038;-85
2022/01/18 00:55:06;;;;;;;6.47;3.60;;;;;;;4.19;81.89;97743.84;4985211;28;20026;-85
2022/01/18 00:57:32;;;;;;;4.72;2.50;;;;;;;4.21;75.95;97744.69;4969530;28;20042;-86
2022/01/18 00:59:57;;;;;;;4.60;2.78;;;;;;;4.15;75.22;97752.84;4991819;28;20550;-86
2022/01/18 01:02:23;;;;;;;4.70;2.70;;;;;;;3.98;75.64;97747.22;4969692;28;20034;-85
2022/01/18 01:04:49;;;;;;;4.45;2.45;;;;;;;3.90;72.40;97734.25;4987904;28;20126;-85
2022/01/18 01:07:17;;;;;;;3.08;2.13;;;;;;;3.90;65.84;97726.31;5005300;28;20022;-86
2022/01/18 01:09:43;;;;;;;3.70;2.47;;;;;;;4.05;60.52;97736.41;5000044;28;20051;-87
2022/01/18 01:12:11;;;;;;;4.03;1.98;;;;;;;4.17;57.39;97727.19;4992584;28;20045;-87
2022/01/18 01:14:37;;;;;;;3.25;2.00;;;;;;;4.22;53.59;97715.50;5005851;28;20474;-86
2022/01/18 01:17:34;;;;;;;3.25;1.65;;;;;;;4.34;49.64;97703.63;4993047;28;20038;-86
2022/01/18 01:41:50;;;;;;;3.47;1.60;;;;;;;3.94;43.23;97692.69;4993704;28;20531;-82
2022/01/18 01:44:24;;;;;;;2.42;1.55;;;;;;;3.75;45.87;97709.16;4986057;28;20383;-83
2022/01/18 01:46:51;;;;;;;2.15;1.50;;;;;;;3.57;46.33;97719.47;5001277;28;20026;-83
2022/01/18 01:49:19;;;;;;;4.22;1.90;;;;;;;3.42;47.92;97723.44;4997124;28;20043;-82
2022/01/18 01:51:47;;;;;;;3.63;2.10;;;;;;;3.29;49.00;97737.97;4969175;28;20030;-83
2022/01/18 01:54:13;;;;;;;5.82;2.60;;;;;;;3.21;49.51;97724.09;4986785;28;20058;-81
2022/01/18 01:56:38;;;;;;;3.55;2.03;;;;;;;3.04;48.77;97721.09;4999747;28;20495;-82
2022/01/18 01:59:05;;;;;;;2.92;1.77;;;;;;;3.08;48.72;97710.38;4987380;28;20042;-82
2022/01/18 02:01:39;;;;;;;5.75;2.40;;;;;;;2.98;48.61;97713.38;4999619;28;20109;-82
2022/01/18 02:04:04;;;;;;;2.47;1.58;;;;;;;3.08;46.54;97718.31;4999707;28;20401;-82
2022/01/18 02:06:30;;;;;;;5.35;1.90;;;;;;;3.05;47.60;97709.59;4999607;28;20110;-82
2022/01/18 02:08:55;;;;;;;2.67;1.50;;;;;;;3.07;46.25;97728.94;4963094;28;20121;-81
2022/01/18 02:11:21;;;;;;;1.77;1.40;;;;;;;2.93;45.99;97715.25;4985932;28;20037;-82
2022/01/18 02:13:49;;;;;;;3.00;1.60;;;;;;;2.98;47.27;97729.22;4979273;28;20502;-82
2022/01/18 02:21:58;;;;;;;2.22;1.40;;;;;;;2.68;47.81;97752.91;4998279;28;20425;-82
2022/01/18 02:24:24;;;;;;;2.15;1.27;;;;;;;2.64;48.01;97776.84;5002725;28;20026;-82
2022/01/18 02:26:50;;;;;;;2.70;1.50;;;;;;;2.61;47.95;97790.13;5001158;28;20086;-82
2022/01/18 02:29:16;;;;;;;2.80;1.33;;;;;;;2.53;49.28;97816.69;4981769;28;20038;-81
2022/01/18 02:31:42;;;;;;;4.63;1.70;;;;;;;2.44;49.02;97826.63;4981487;28;20034;-82
2022/01/18 02:34:19;;;;;;;3.97;2.20;;;;;;;2.30;49.12;97844.59;4980203;28;20491;-81
2022/01/18 02:36:44;;;;;;;3.33;2.10;;;;;;;2.21;50.55;97871.19;5004492;28;20519;-81
2022/01/18 02:39:11;;;;;;;3.78;2.20;;;;;;;2.12;51.11;97888.13;4988631;28;20026;-81
2022/01/18 02:41:37;;;;;;;5.28;2.65;;;;;;;2.06;50.39;97883.00;4981938;28;20030;-81
2022/01/18 02:44:06;;;;;;;6.00;2.10;;;;;;;2.06;50.80;97893.53;4984580;28;20037;-82
2022/01/18 02:46:32;;;;;;;4.13;1.83;;;;;;;2.04;49.38;97888.28;5001489;28;20056;-82
2022/01/18 02:48:59;;;;;;;4.82;2.80;;;;;;;1.96;50.24;97887.59;5004809;28;20057;-81
2022/01/18 02:51:25;;;;;;;5.63;2.53;;;;;;;1.85;52.71;97889.59;4985824;28;20126;-82
2022/01/18 02:54:02;;;;;;;4.68;2.50;;;;;;;1.83;51.26;97907.22;4996730;28;20045;-82
2022/01/18 02:56:42;;;;;;;3.47;1.85;;;;;;;1.92;49.56;97895.59;4980177;28;20038;-82
2022/01/18 03:04:18;;;;;;;5.13;2.33;;;;;;;1.76;51.44;97918.78;4985801;28;20100;-82
2022/01/18 03:06:43;;;;;;;4.70;2.10;;;;;;;1.74;51.98;97938.19;5001880;28;20027;-82
2022/01/18 03:09:09;;;;;;;3.90;2.50;;;;;;;1.69;52.43;97940.06;4998464;28;20026;-82
2022/01/18 03:11:34;;;;;;;4.47;2.40;;;;;;;1.70;52.27;97942.66;4986245;28;20099;-82
2022/01/18 03:14:00;;;;;;;5.78;2.42;;;;;;;1.62;49.83;97932.28;4996712;28;20034;-82
2022/01/18 03:16:25;;;;;;;5.15;2.30;;;;;;;1.63;50.35;97936.63;4966819;28;20018;-82
2022/01/18 03:18:51;;;;;;;5.05;2.58;;;;;;;1.60;51.55;97957.78;4966624;28;20031;-82
2022/01/18 03:21:16;;;;;;;3.63;2.28;;;;;;;1.62;50.76;97948.09;4987020;28;20022;-82
2022/01/18 03:23:42;;;;;;;5.15;2.50;;;;;;;1.63;49.77;97960.38;5005583;28;20049;-82
2022/01/18 03:26:15;;;;;;;7.93;3.38;;;;;;;1.53;50.32;97950.94;4995907;28;20125;-82
2022/01/18 03:28:41;;;;;;;6.32;3.40;;;;;;;1.57;49.99;97963.13;4970662;28;20045;-82
2022/01/18 03:31:06;;;;;;;5.57;2.80;;;;;;;1.56;50.96;97956.13;4982001;28;20426;-82
2022/01/18 03:33:32;;;;;;;4.95;2.40;;;;;;;1.62;51.05;97960.41;4998145;28;20223;-82
2022/01/18 03:35:59;;;;;;;2.45;1.73;;;;;;;1.74;49.09;97967.19;5001651;28;20030;-81
2022/01/18 03:38:31;;;;;;;6.07;2.00;;;;;;;1.78;48.42;97982.06;4994535;28;20019;-83
2022/01/18 03:40:59;;;;;;;3.10;1.80;;;;;;;1.89;47.04;97948.41;4967372;28;20458;-82
2022/01/18 03:43:25;;;;;;;5.72;2.97;;;;;;;1.87;46.97;97956.38;4969140;28;20061;-83
2022/01/18 03:45:54;;;;;;;4.32;2.50;;;;;;;1.77;49.20;97975.91;4986333;28;20512;-82
2022/01/18 03:48:29;;;;;;;7.18;2.90;;;;;;;1.87;47.35;97995.06;5000159;28;20053;-83
2022/01/18 03:50:56;;;;;;;6.10;3.67;;;;;;;1.81;50.01;98008.38;4968716;28;20027;-83
2022/01/18 03:53:22;;;;;;;10.15;4.07;;;;;;;1.66;50.53;98017.47;4980453;28;20121;-83
2022/01/18 03:55:49;;;;;;;7.38;3.75;;;;;;;1.58;51.06;98028.13;4981257;28;20030;-82
2022/01/18 03:58:14;;;;;;;7.20;4.00;;;;;;;1.47;50.92;98022.22;4982039;28;20054;-82
2022/01/18 04:00:41;;;;;;;10.68;4.13;;;;;;;1.51;50.87;98052.84;5001074;28;20080;-83
2022/01/18 04:03:06;;;;;;;14.68;5.05;;;;;;;1.39;51.52;98053.06;4964698;28;20037;-83
2022/01/18 04:05:32;;;;;;;10.50;3.60;;;;;;;1.24;51.67;98040.19;5001089;28;20022;-83
2022/01/18 04:07:58;;;;;;;5.35;3.20;;;;;;;1.20;52.67;98051.66;5000264;28;20022;-83
2022/01/18 04:10:23;;;;;;;10.18;3.15;;;;;;;1.14;52.45;98049.13;4981484;28;20553;-83
2022/01/18 04:12:49;;;;;;;6.70;3.35;;;;;;;1.15;53.13;98058.78;5002685;28;20022;-83
2022/01/18 04:15:16;;;;;;;7.28;3.38;;;;;;;1.10;54.01;98071.16;4967788;28;20032;-83
2022/01/18 04:25:57;;;;;;;13.55;4.60;;;;;;;0.96;52.95;98066.09;4997979;28;20561;-82
2022/01/18 04:28:37;;;;;;;14.68;6.72;;;;;;;1.06;51.19;98051.03;5002946;28;20112;-82
2022/01/18 04:31:04;;;;;;;5.15;2.55;;;;;;;1.13;51.52;98068.47;4997478;28;20380;-83
2022/01/18 04:33:30;;;;;;;4.32;2.40;;;;;;;1.15;49.59;98064.03;4981298;28;20117;-86
2022/01/18 04:35:56;;;;;;;13.07;6.40;;;;;;;1.14;51.26;98067.56;5002420;28;20034;-87
2022/01/18 04:38:21;;;;;;;6.57;2.88;;;;;;;1.31;49.86;98089.25;4977741;28;20030;-85
2022/01/18 04:40:48;;;;;;;9.05;4.03;;;;;;;1.27;51.43;98105.13;4980821;28;20034;-87
2022/01/18 04:48:33;;;;;;;9.30;3.78;;;;;;;1.53;48.79;98113.47;4984364;28;20138;-76
2022/01/18 04:51:09;;;;;;;8.65;4.30;;;;;;;1.48;49.69;98120.56;4974504;28;20054;-76
2022/01/18 04:53:38;;;;;;;6.85;3.70;;;;;;;1.39;50.53;98131.25;4958884;28;20035;-75
2022/01/18 04:56:09;;;;;;;10.07;4.20;;;;;;;1.30;51.26;98148.09;4983274;28;20105;-76
2022/01/18 04:58:35;;;;;;;10.00;4.30;;;;;;;1.17;52.11;98129.88;4989276;28;20027;-75
2022/01/18 05:01:03;;;;;;;10.07;4.97;;;;;;;1.16;52.44;98143.94;4974756;28;20477;-76
2022/01/18 05:03:30;;;;;;;14.23;6.22;;;;;;;1.13;52.65;98146.63;4958957;28;20058;-75
2022/01/18 05:06:01;;;;;;;10.38;5.38;;;;;;;1.15;52.69;98132.53;5003369;28;20036;-76
2022/01/18 05:08:27;;;;;;;15.80;6.38;;;;;;;1.34;52.35;98139.25;5012574;28;20038;-76
2022/01/18 05:10:56;;;;;;;6.95;3.25;;;;;;;1.28;52.47;98149.91;5012450;28;20481;-76
2022/01/18 05:21:34;;;;;;;7.78;3.20;;;;;;;1.52;48.42;98157.41;5011833;28;20088;-76
2022/01/18 05:24:00;;;;;;;15.35;6.70;;;;;;;1.56;50.54;98176.69;5011231;28;20034;-85
2022/01/18 05:26:27;;;;;;;5.55;2.90;;;;;;;1.38;49.78;98183.13;5011593;28;20081;-85
2022/01/18 05:28:53;;;;;;;4.35;1.80;;;;;;;1.37;49.24;98167.31;4995760;28;20026;-86
2022/01/18 05:31:18;;;;;;;5.78;3.47;;;;;;;1.35;50.09;98187.56;5010865;28;20523;-87
2022/01/18 05:33:46;;;;;;;9.07;5.05;;;;;;;1.27;52.01;98185.03;4994973;28;20033;-86
2022/01/18 05:36:12;;;;;;;11.98;5.85;;;;;;;1.16;54.13;98215.06;5011539;28;20409;-87
2022/01/18 05:38:38;;;;;;;14.05;6.40;;;;;;;1.06;54.38;98215.19;4994512;28;20030;-86
2022/01/18 05:41:05;;;;;;;14.27;6.88;;;;;;;0.93;55.08;98204.84;5008810;28;20022;-86
2022/01/18 05:43:32;;;;;;;26.25;11.20;;;;;;;1.03;54.15;98224.91;5003503;28;20038;-86
2022/01/18 05:45:57;;;;;;;8.07;4.45;;;;;;;0.96;51.36;98197.78;5003228;28;20445;-79
2022/01/18 05:48:23;;;;;;;24.02;12.55;;;;;;;0.97;51.29;98191.63;5013259;28;20079;-89
2022/01/18 05:50:49;;;;;;;21.52;10.10;;;;;;;1.05;53.06;98215.19;5008637;28;20041;-76
2022/01/18 05:53:15;;;;;;;24.52;10.25;;;;;;;1.07;52.88;98208.16;4994820;28;20033;-86
2022/01/18 05:55:41;;;;;;;28.65;12.90;;;;;;;1.12;53.74;98223.91;4994890;28;20520;-84
2022/01/18 05:58:07;;;;;;;37.53;16.42;;;;;;;1.00;54.68;98214.41;4994930;28;20103;-86
2022/01/18 06:00:33;;;;;;;49.22;22.70;;;;;;;0.95;54.13;98224.13;4994741;28;20041;-85
2022/01/18 06:03:03;;;;;;;38.83;19.13;;;;;;;0.96;53.96;98226.75;4995351;28;20172;-85
2022/01/18 06:08:14;;;;;;;50.55;22.33;;;;;;;1.07;55.10;98250.31;5011754;28;20115;-85
2022/01/18 06:10:40;;;;;;;49.55;21.67;;;;;;;1.08;53.96;98241.50;4995427;28;20037;-85
2022/01/18 06:13:07;;;;;;;56.97;26.67;;;;;;;1.12;53.81;98245.84;4981939;28;20033;-85
2022/01/18 06:15:34;;;;;;;159.48;51.17;;;;;;;1.12;53.14;98243.22;4993918;28;20026;-85
2022/01/18 06:18:00;;;;;;;79.07;35.95;;;;;;;1.15;52.96;98252.81;5008711;28;20022;-85
2022/01/18 06:20:25;;;;;;;66.63;30.85;;;;;;;1.18;53.65;98266.84;4994151;28;20505;-86
2022/01/18 06:22:51;;;;;;;18.95;9.25;;;;;;;1.32;51.30;98256.13;5011711;28;20026;-85
2022/01/18 06:25:20;;;;;;;25.90;11.50;;;;;;;1.36;51.47;98263.06;5011502;28;20084;-85
2022/01/18 06:27:46;;;;;;;11.23;5.15;;;;;;;1.39;49.65;98258.63;4994907;28;20131;-85
2022/01/18 06:30:12;;;;;;;24.75;9.98;;;;;;;1.43;51.90;98277.91;5013184;28;20478;-85
2022/01/18 06:32:39;;;;;;;32.97;13.93;;;;;;;1.45;51.37;98292.81;4992505;28;20453;-86
2022/01/18 06:35:06;;;;;;;34.20;14.95;;;;;;;1.43;51.30;98285.81;4994672;28;20438;-85
2022/01/18 06:37:32;;;;;;;35.65;14.82;;;;;;;1.45;52.27;98295.44;4994427;28;20033;-86
2022/01/18 06:39:59;;;;;;;42.40;19.67;;;;;;;1.50;51.47;98290.13;5010858;28;20511;-85
2022/01/18 06:42:25;;;;;;;62.63;25.45;;;;;;;1.70;50.96;98289.81;5005035;28;20096;-86
2022/01/18 06:44:51;;;;;;;48.63;21.77;;;;;;;1.85;50.32;98282.53;4995088;28;20057;-85
2022/01/18 06:47:17;;;;;;;49.40;21.88;;;;;;;2.46;50.18;98279.72;4995223;28;20402;-86
2022/01/18 06:49:42;;;;;;;69.20;32.42;;;;;;;4.45;48.21;98276.19;4994931;28;20057;-86
2022/01/18 06:52:08;;;;;;;96.90;42.97;;;;;;;6.54;44.14;98270.72;5011892;28;20460;-86
2022/01/18 06:54:34;;;;;;;84.22;40.92;;;;;;;7.62;40.00;98240.97;4995442;28;20030;-85
2022/01/18 06:56:59;;;;;;;109.05;53.75;;;;;;;8.55;39.34;98245.19;5012282;28;20026;-85
2022/01/18 06:59:25;;;;;;;83.38;40.97;;;;;;;9.50;35.94;98240.88;4995806;28;20034;-85
2022/01/18 07:01:50;;;;;;;106.57;51.47;;;;;;;10.81;36.17;98244.19;4997544;28;20026;-86
2022/01/18 07:04:16;;;;;;;102.85;48.05;;;;;;;11.80;34.00;98239.72;5015467;28;20034;-86
2022/01/18 07:06:42;;;;;;;48.40;24.35;;;;;;;12.30;31.66;98226.13;5014853;28;20108;-87
2022/01/18 07:09:07;;;;;;;31.58;15.55;;;;;;;13.19;30.09;98211.84;5014340;28;20032;-86
2022/01/18 07:11:33;;;;;;;29.05;13.98;;;;;;;12.86;29.20;98198.59;5014866;28;20030;-86
2022/01/18 07:13:59;;;;;;;43.53;24.38;;;;;;;13.58;28.85;98198.59;4996691;28;20541;-87
2022/01/18 07:16:24;;;;;;;9.68;5.47;;;;;;;13.42;28.19;98208.56;4996781;28;20064;-87
2022/01/18 07:18:50;;;;;;;10.63;5.15;;;;;;;12.36;29.26;98223.09;5016053;28;20505;-86
2022/01/18 07:21:16;;;;;;;11.10;4.95;;;;;;;13.12;27.35;98206.91;5011198;28;20068;-85
2022/01/18 07:23:41;;;;;;;14.30;6.75;;;;;;;12.31;27.80;98221.63;5015584;28;20037;-85
2022/01/18 07:26:07;;;;;;;11.95;4.20;;;;;;;10.86;29.61;98230.53;4997137;28;20027;-85
2022/01/18 07:28:32;;;;;;;23.35;4.30;;;;;;;11.11;30.48;98240.84;4999329;28;20489;-86
2022/01/18 07:30:58;;;;;;;8.30;2.83;;;;;;;12.26;28.02;98234.44;5015167;28;20088;-86
2022/01/18 07:33:23;;;;;;;10.43;4.43;;;;;;;13.69;26.18;98224.75;4997762;28;20021;-87
2022/01/18 07:35:49;;;;;;;13.18;3.70;;;;;;;14.50;25.84;98232.00;5011659;28;20390;-87
2022/01/18 07:38:17;;;;;;;13.63;6.65;;;;;;;15.05;25.25;98230.94;4998944;28;20548;-85
2022/01/18 07:40:45;;;;;;;4.13;2.08;;;;;;;14.19;24.52;98221.50;5011660;28;20037;-86
2022/01/18 07:43:16;;;;;;;8.95;4.70;;;;;;;15.06;25.02;98235.38;5009235;28;20480;-87
2022/01/18 07:45:44;;;;;;;10.13;5.22;;;;;;;15.49;24.48;98234.16;4995645;28;20461;-87
2022/01/18 07:48:10;;;;;;;13.10;5.72;;;;;;;15.12;24.74;98224.16;4997909;28;20041;-87
2022/01/18 07:50:36;;;;;;;18.58;7.75;;;;;;;14.47;27.24;98248.38;5014953;28;20028;-87
2022/01/18 07:53:01;;;;;;;13.10;5.43;;;;;;;14.18;25.46;98224.31;5014290;28;20100;-86
2022/01/18 07:55:27;;;;;;;31.77;15.18;;;;;;;14.18;26.34;98227.84;5014700;28;20033;-87
2022/01/18 07:57:54;;;;;;;19.17;9.23;;;;;;;12.58;27.26;98238.78;4991731;28;20469;-87
2022/01/18 08:00:20;;;;;;;12.70;8.43;;;;;;;13.04;27.48;98243.13;5017106;28;20061;-87
2022/01/18 08:02:45;;;;;;;6.22;3.15;;;;;;;13.81;26.62;98236.59;4997887;28;20030;-87
2022/01/18 08:05:12;;;;;;;27.48;11.07;;;;;;;14.36;26.90;98228.50;5012341;28;20056;-87
2022/01/18 08:07:38;;;;;;;7.38;4.05;;;;;;;14.81;25.35;98229.94;4999587;28;20075;-87
2022/01/18 08:10:05;;;;;;;3.80;2.53;;;;;;;13.74;26.12;98224.50;5015209;28;20025;-88
2022/01/18 08:12:31;;;;;;;11.38;4.35;;;;;;;14.49;25.71;98227.56;5014568;28;20101;-88
2022/01/18 08:15:02;;;;;;;11.77;6.68;;;;;;;15.14;25.45;98233.00;4998102;28;20029;-87
2022/01/18 08:17:28;;;;;;;13.10;4.85;;;;;;;14.89;25.18;98227.59;5014647;28;20056;-87
2022/01/18 08:19:53;;;;;;;19.60;8.77;;;;;;;15.85;24.96;98245.97;5014002;28;20813;-87
2022/01/18 08:22:19;;;;;;;29.10;11.60;;;;;;;16.00;24.65;98243.00;5013619;28;20025;-87
2022/01/18 08:24:44;;;;;;;17.42;9.23;;;;;;;15.91;24.78;98262.56;5014431;28;20037;-85
2022/01/18 08:27:10;;;;;;;17.73;7.47;;;;;;;15.18;25.51;98261.47;5014466;28;20133;-84
2022/01/18 08:29:36;;;;;;;16.88;7.63;;;;;;;14.81;24.60;98262.25;5001954;28;20029;-86
2022/01/18 08:32:04;;;;;;;11.27;6.20;;;;;;;14.40;24.99;98262.31;4998742;28;20482;-85
2022/01/18 08:34:30;;;;;;;19.98;6.88;;;;;;;14.65;25.77;98274.06;5011527;28;20033;-85
2022/01/18 08:36:56;;;;;;;23.50;10.88;;;;;;;14.41;25.80;98278.38;4997853;28;20034;-86
2022/01/18 08:39:21;;;;;;;17.52;8.75;;;;;;;15.51;25.60;98294.22;5010686;28;20050;-85
2022/01/18 08:41:47;;;;;;;21.85;9.60;;;;;;;15.88;24.61;98289.78;5001315;28;20482;-87
2022/01/18 08:44:13;;;;;;;18.40;9.48;;;;;;;15.86;24.68;98282.78;5012600;28;20478;-86
2022/01/18 08:46:38;;;;;;;25.17;14.88;;;;;;;15.87;24.99;98289.91;5012765;28;20037;-87
2022/01/18 08:49:05;;;;;;;30.77;16.92;;;;;;;15.60;25.72;98288.16;5014145;28;20041;-87
2022/01/18 08:51:31;;;;;;;20.63;10.73;;;;;;;16.25;24.92;98290.69;4997229;28;20073;-87
2022/01/18 08:53:57;;;;;;;14.32;5.38;;;;;;;17.07;23.76;98284.56;5011966;28;20439;-87
2022/01/18 08:56:23;;;;;;;7.93;2.85;;;;;;;16.20;24.08;98290.16;5005029;28;20119;-85
2022/01/18 08:58:49;;;;;;;8.27;2.90;;;;;;;15.06;25.21;98294.66;5013493;28;20184;-85
2022/01/18 09:01:15;;;;;;;13.95;6.05;;;;;;;14.87;25.86;98294.16;5014024;28;20029;-87
2022/01/18 09:03:41;;;;;;;12.63;3.97;;;;;;;16.23;23.77;98287.25;4993779;28;20050;-85
2022/01/18 09:06:11;;;;;;;13.77;6.68;;;;;;;16.95;23.52;98278.22;4995647;28;20045;-85
2022/01/18 09:08:37;;;;;;;7.43;4.40;;;;;;;15.98;22.59;98279.19;4995081;28;20088;-85
2022/01/18 09:11:04;;;;;;;14.02;6.10;;;;;;;16.17;23.54;98276.91;5012496;28;20025;-85
2022/01/18 09:13:31;;;;;;;14.25;4.57;;;;;;;16.37;22.83;98276.28;5014009;28;20068;-87
2022/01/18 09:15:57;;;;;;;7.53;3.25;;;;;;;14.97;23.97;98274.59;4994976;28;20034;-87
2022/01/18 09:18:22;;;;;;;10.43;4.10;;;;;;;13.41;26.07;98274.00;5012997;28;20478;-85
2022/01/18 09:20:48;;;;;;;11.63;6.28;;;;;;;13.69;24.71;98266.94;5015024;28;20073;-86
2022/01/18 09:23:17;;;;;;;12.30;4.82;;;;;;;14.22;25.15;98274.25;4997157;28;20113;-85
2022/01/18 09:25:42;;;;;;;10.63;5.13;;;;;;;15.28;24.13;98269.78;4993522;28;20441;-85
2022/01/18 09:28:08;;;;;;;8.00;4.63;;;;;;;15.69;22.73;98262.38;4993777;28;20029;-85
2022/01/18 09:30:35;;;;;;;7.65;4.20;;;;;;;16.11;22.50;98259.31;4993070;28;20105;-85
2022/01/18 09:33:02;;;;;;;17.10;9.45;;;;;;;16.51;22.45;98253.66;5008540;28;20022;-85
2022/01/18 09:35:28;;;;;;;13.32;7.15;;;;;;;16.29;22.13;98251.69;5011424;28;20120;-85
2022/01/18 09:37:54;;;;;;;13.85;6.88;;;;;;;15.66;22.75;98251.81;5012862;28;20091;-86
2022/01/18 09:40:23;;;;;;;9.93;2.95;;;;;;;15.74;22.49;98254.84;5014736;28;20084;-85
2022/01/18 09:42:54;;;;;;;4.75;2.80;;;;;;;16.41;22.19;98255.31;5011342;28;20107;-85
2022/01/18 09:45:21;;;;;;;9.50;5.05;;;;;;;16.65;22.00;98259.78;4995306;28;20097;-85
2022/01/18 09:47:48;;;;;;;5.70;2.38;;;;;;;15.94;22.41;98265.03;5010238;28;20041;-85
2022/01/18 09:50:17;;;;;;;9.23;4.55;;;;;;;15.16;23.02;98253.47;4993243;28;20150;-86
2022/01/18 09:52:43;;;;;;;3.47;2.00;;;;;;;15.35;21.99;98231.50;5014736;28;20508;-86
2022/01/18 09:55:09;;;;;;;3.25;2.47;;;;;;;15.46;21.95;98237.03;5012689;28;20069;-85
2022/01/18 09:57:37;;;;;;;6.72;3.08;;;;;;;15.56;21.96;98237.28;5011322;28;20036;-84
2022/01/18 10:00:05;;;;;;;2.53;1.60;;;;;;;15.50;21.26;98219.69;4995756;28;20030;-86
2022/01/18 10:02:30;;;;;;;7.35;2.13;;;;;;;15.26;22.12;98207.88;4999299;28;20037;-85
2022/01/18 10:04:59;;;;;;;5.65;3.00;;;;;;;16.67;21.47;98235.38;5012208;28;20033;-86
2022/01/18 10:07:35;;;;;;;10.02;4.70;;;;;;;16.04;21.80;98219.38;5014593;28;20056;-85
2022/01/18 10:10:05;;;;;;;5.13;3.00;;;;;;;16.42;20.52;98211.16;4991005;28;20034;-85
2022/01/18 10:12:30;;;;;;;7.25;3.40;;;;;;;15.83;21.42;98199.34;4993932;28;20026;-85
2022/01/18 10:14:58;;;;;;;10.52;4.30;;;;;;;16.13;21.47;98203.38;5011807;28;20049;-86
2022/01/18 10:17:36;;;;;;;10.98;2.50;;;;;;;15.60;21.59;98209.09;5011328;28;20196;-86
2022/01/18 10:20:20;;;;;;;8.05;3.20;;;;;;;16.06;21.54;98201.22;5005636;28;20496;-85
2022/01/18 10:22:50;;;;;;;11.68;2.63;;;;;;;16.39;21.34;98214.94;5013101;28;20501;-84
2022/01/18 10:25:28;;;;;;;7.32;3.20;;;;;;;16.18;21.02;98211.13;4979459;28;20061;-85
2022/01/18 10:27:58;;;;;;;6.28;3.10;;;;;;;16.54;22.24;98208.41;5011097;28;20036;-86
2022/01/18 10:30:35;;;;;;;8.52;3.28;;;;;;;16.41;21.05;98201.31;4995100;28;20087;-85
2022/01/18 10:33:19;;;;;;;4.30;2.53;;;;;;;16.08;21.73;98200.16;5012250;28;20087;-84
2022/01/18 10:36:14;;;;;;;17.80;8.93;;;;;;;15.48;22.62;98218.91;5013516;28;20030;-86
2022/01/18 10:38:45;;;;;;;8.30;3.85;;;;;;;16.25;21.15;98207.00;5014518;28;20087;-84
2022/01/18 10:41:28;;;;;;;22.42;9.30;;;;;;;15.84;21.53;98207.34;5016068;28;20025;-85
2022/01/18 10:44:09;;;;;;;38.88;18.17;;;;;;;16.97;20.69;98194.31;5005956;28;20030;-85
2022/01/18 10:46:42;;;;;;;12.35;5.55;;;;;;;16.73;20.55;98181.69;5029871;28;20034;-84
2022/01/18 10:49:09;;;;;;;12.10;4.88;;;;;;;17.49;20.42;98186.56;5009675;28;20502;-86
2022/01/18 10:51:37;;;;;;;5.78;3.20;;;;;;;16.31;20.51;98182.22;4996050;28;20044;-86
2022/01/18 10:54:05;;;;;;;18.35;8.43;;;;;;;16.46;21.48;98183.78;5012794;28;20013;-84
2022/01/18 10:56:42;;;;;;;5.88;3.70;;;;;;;16.06;20.60;98171.53;5014620;28;20030;-85
2022/01/18 10:59:25;;;;;;;9.48;4.30;;;;;;;16.48;21.51;98159.38;4998717;28;20188;-82
2022/01/18 11:02:10;;;;;;;;;;;;;;;15.94;22.18;98169.72;5013323;28;20033;-82
2022/01/18 11:04:36;;;;;;;15.55;6.32;;;;;;;17.21;21.88;98174.34;5012369;28;19913;-82
2022/01/18 11:07:03;;;;;;;13.57;5.30;;;;;;;17.67;20.68;98173.41;4995964;28;20109;-82
2022/01/18 11:09:30;;;;;;;12.00;6.50;;;;;;;16.18;20.41;98152.59;5012093;28;20040;-81
2022/01/18 11:11:56;;;;;;;7.97;4.60;;;;;;;15.24;21.23;98161.31;5013285;28;20026;-82
2022/01/18 11:14:25;;;;;;;4.70;3.03;;;;;;;13.75;22.14;98162.53;4993511;28;20034;-82
2022/01/18 11:16:52;;;;;;;8.80;5.45;;;;;;;13.95;22.22;98150.47;4996162;28;20462;-82
2022/01/18 11:19:57;;;;;;;10.23;3.72;;;;;;;14.27;22.57;98143.84;5009607;28;20025;-81
2022/01/18 11:22:28;;;;;;;18.77;5.30;;;;;;;15.12;22.77;98154.97;4996288;28;20128;-82
2022/01/18 11:24:57;;;;;;;10.68;6.53;;;;;;;15.23;20.85;98145.28;5001744;28;20060;-82
2022/01/18 11:27:23;;;;;;;5.47;2.70;;;;;;;14.23;22.03;98141.44;5013222;28;20064;-81
2022/01/18 11:29:49;;;;;;;7.35;3.97;;;;;;;15.96;20.84;98147.09;5012059;28;20494;-82
2022/01/18 11:32:16;;;;;;;18.25;5.82;;;;;;;16.98;20.05;98152.81;5011642;28;20026;-82
2022/01/18 11:34:56;;;;;;;4.55;3.25;;;;;;;14.41;21.60;98161.75;5011540;28;20060;-81
2022/01/18 11:37:27;;;;;;;5.85;3.35;;;;;;;13.97;22.51;98164.69;5013244;28;20029;-82
2022/01/18 11:39:58;;;;;;;8.63;4.00;;;;;;;13.39;23.47;98157.69;5010597;28;20060;-81
2022/01/18 11:42:37;;;;;;;11.48;4.10;;;;;;;13.97;22.86;98143.16;4992060;28;20042;-82
2022/01/18 11:45:25;;;;;;;10.77;4.30;;;;;;;14.01;22.53;98142.00;4994885;28;20632;-82
2022/01/18 11:48:13;;;;;;;8.38;4.57;;;;;;;15.25;21.79;98146.88;5027001;28;20117;-82
2022/01/18 11:50:49;;;;;;;9.77;3.03;;;;;;;14.13;22.16;98136.69;5007035;28;20041;-82
2022/01/18 11:53:26;;;;;;;12.23;3.72;;;;;;;15.02;22.04;98145.81;5009757;28;20044;-82
2022/01/18 11:56:02;;;;;;;9.25;3.95;;;;;;;14.25;21.93;98144.88;5011692;28;20037;-82
2022/01/18 11:58:28;;;;;;;6.65;3.67;;;;;;;12.63;23.10;98141.91;5011831;28;20038;-82
2022/01/18 12:00:57;;;;;;;5.72;2.90;;;;;;;12.36;24.14;98139.94;4992605;28;20088;-82
2022/01/18 12:03:31;;;;;;;10.93;2.58;;;;;;;13.89;21.97;98146.38;4995287;28;20096;-82
2022/01/18 12:05:59;;;;;;;4.88;2.38;;;;;;;13.47;21.25;98124.97;5011243;28;20092;-81
2022/01/18 12:08:32;;;;;;;7.10;2.85;;;;;;;12.19;24.07;98136.50;4991836;28;20371;-81
2022/01/18 12:10:58;;;;;;;8.65;2.92;;;;;;;11.44;24.29;98132.72;4994390;28;20021;-82
2022/01/18 12:13:30;;;;;;;7.25;3.80;;;;;;;12.31;25.01;98150.06;5011336;28;20427;-81
2022/01/18 12:15:57;;;;;;;10.10;4.85;;;;;;;11.59;25.87;98140.88;4992519;28;20090;-82
2022/01/18 12:18:28;;;;;;;11.10;5.10;;;;;;;10.42;26.19;98139.25;4994654;28;20037;-81
2022/01/18 12:20:55;;;;;;;10.85;4.13;;;;;;;9.21;27.62;98139.91;4995967;28;20061;-79
2022/01/18 12:23:26;;;;;;;13.98;4.93;;;;;;;10.09;27.58;98138.28;5027492;28;20034;-80
2022/01/18 12:26:00;;;;;;;19.67;7.80;;;;;;;11.06;26.60;98158.09;4994848;28;20033;-82
2022/01/18 12:36:56;;;;;;;8.23;4.47;;;;;;;10.57;28.70;98169.66;5012444;28;20029;-82
2022/01/18 12:39:22;;;;;;;13.07;4.85;;;;;;;11.45;29.07;98173.78;5004924;28;20419;-80
2022/01/18 12:41:52;;;;;;;8.40;3.28;;;;;;;11.19;28.63;98167.22;5010550;28;20114;-82
2022/01/18 12:44:21;;;;;;;7.97;3.88;;;;;;;11.61;29.47;98161.28;5011546;28;20017;-81
2022/01/18 12:47:00;;;;;;;10.82;4.55;;;;;;;12.41;30.07;98194.16;5011014;28;20092;-82
2022/01/18 12:49:27;;;;;;;9.60;5.18;;;;;;;13.72;28.55;98186.94;5009020;28;20104;-82
2022/01/18 12:51:58;;;;;;;14.80;5.50;;;;;;;14.53;28.66;98199.50;5011672;28;20507;-82